Ames, Texas
Current Conditions -  °F | °C
As of 7:54 AM on Wednesday 28 Jan 2015 (Local Time) from K6R3 Reporting Station
Clear Clear  
Wind Chill:   Ceiling: Unl
Heat Index:   Visibility: 5mi
Dew Point:   Wind: 0mph
Humidity: 100%   Direction: NA
Pressure: 30.2"   Gusts: NA
Location:  30.0821°N, 94.7401°W
Report Text: K6R3 281354Z AUTO 00000KT 5SM CLR 05/05 A3020 RMK AO2
Loading
Personal Weather Stations






























Interactive Weather Map New forecast layout! Learn more

10-Day Weather Forecast

Advertisements
Track Severe Weather on mobile